Kezdőlap
METAR-TAF:

METAR-TAF

Repülőterek :

St. Moritz, Svájc

földrajzi szélesség: 46-32-03N, földrajzi hosszúság: 9-53-03E, magasság: 1707 m

Jelenlegi meteorológiai megfigyelések

A jelentés 24 perccel ezelõtt készült, 14:20 UTC
Délnyugati szél 5 kt
Hőmérséklet 1°C
Páratartalom 55%
Légköri nyomás 1019 hPa
Látótávolság 10 km, vagy több
Szórványos felhőzet 5500 lábon

METAR: LSZS 251420Z 23005KT 9999 SCT055 01/M07 Q1019 RMK P TL170

Idő: 15:44 (14:44 UTC)

Előrejelzés

A jelentés 19 perccel ezelõtt készült, 14:25 UTC
Az előrejelzés 25-én 15 óra UTC és 25-én 24 óra UTC között érvényes
Különbözõ irányokból fújó szél 3 kt
Látótávolság 10 km, vagy több
felhőtlen 1500 m magasságban, és nincs gomolyfelhõ
25-én 15 óra UTC és 25-én 24 óra UTC között ideiglenes
Látótávolság 10 km, vagy több
Szakadozott felhőzet 10000 lábon

TAF: LSZS 251425Z 2515/2524 VRB03KT CAVOK TX01/2515Z TEMPO 2515/2524 9999 BKN100

Meteorológiai megfigyelések és előrejelzések több, mint 4000 repülőtéren (METAR és TAF jelentéseket).

A térképen piros és sárga pontok jelzik az elérhető meteorológiai állomásokat.

Mozgassa az egeret a pont fölött, hogy megjelenjen az állomás neve.

Azután kattintson az időjárási megfigyelések és előrejelzések megtekintéséhez.

A térkép megváltoztatása: kattintson a fekete keresztel jelölt zöld gombra ráközelítéshez, a vonallal jelölt zöld gombra távolításhoz, vagy a zöld nyilakra a szomszédos térképek eléréséhez.


METAR-TAF: